createdAt,value
2022-09-07T00:02:01.160Z,99091.19
2022-09-07T00:04:27.621Z,99076.22
2022-09-07T00:06:54.147Z,99083.81
2022-09-07T00:09:21.935Z,99079.38
2022-09-07T00:11:48.459Z,99070.66
2022-09-07T00:14:14.898Z,99070.72
2022-09-07T00:16:42.225Z,99077.38
2022-09-07T00:19:09.772Z,99071.22
2022-09-07T00:21:36.228Z,99076.81
2022-09-07T00:24:03.123Z,99070.00
2022-09-07T00:26:29.674Z,99068.94
2022-09-07T00:28:56.110Z,99065.41
2022-09-07T00:31:22.946Z,99066.97
2022-09-07T00:33:49.791Z,99073.97
2022-09-07T00:36:16.179Z,99076.03
2022-09-07T00:38:43.461Z,99078.53
2022-09-07T00:41:10.212Z,99076.97
2022-09-07T00:43:36.734Z,99081.19
2022-09-07T00:46:03.548Z,99084.78
2022-09-07T00:48:30.196Z,99080.25
2022-09-07T00:50:58.710Z,99065.97
2022-09-07T00:53:25.195Z,99065.94
2022-09-07T00:55:51.653Z,99055.88
2022-09-07T00:58:18.519Z,99065.75
2022-09-07T01:00:45.002Z,99061.78
2022-09-07T01:03:11.454Z,99060.78
2022-09-07T01:05:38.028Z,99058.53
2022-09-07T01:08:04.804Z,99060.19
2022-09-07T01:10:31.459Z,99053.84
2022-09-07T01:12:58.398Z,99056.88
2022-09-07T01:15:25.224Z,99052.66
2022-09-07T01:17:51.963Z,99038.28
2022-09-07T01:20:18.493Z,99045.31
2022-09-07T01:22:45.146Z,99045.16
2022-09-07T01:25:11.750Z,99044.13
2022-09-07T01:27:38.590Z,99046.66
2022-09-07T01:30:05.300Z,99048.31
2022-09-07T01:32:31.692Z,99042.06
2022-09-07T01:34:58.366Z,99049.78
2022-09-07T01:37:25.084Z,99040.47
2022-09-07T01:39:54.997Z,99044.28
2022-09-07T01:42:21.559Z,99032.06
2022-09-07T01:44:48.153Z,99046.22
2022-09-07T01:47:14.566Z,99034.19
2022-09-07T01:49:41.021Z,99042.31
2022-09-07T01:52:07.556Z,99034.41
2022-09-07T01:54:33.952Z,99043.72
2022-09-07T01:57:00.384Z,99039.50
2022-09-07T01:59:29.260Z,99042.13
2022-09-07T02:02:01.743Z,99038.84
2022-09-07T02:04:28.497Z,99040.22
2022-09-07T02:06:55.007Z,99035.09
2022-09-07T02:09:21.529Z,99037.75
2022-09-07T02:11:48.131Z,99030.78
2022-09-07T02:14:14.626Z,99029.13
2022-09-07T02:16:41.078Z,99027.16
2022-09-07T02:19:07.801Z,99027.72
2022-09-07T02:21:34.467Z,99037.41
2022-09-07T02:24:01.153Z,99030.38
2022-09-07T02:26:27.785Z,99030.78
2022-09-07T02:28:54.278Z,99034.59
2022-09-07T02:31:20.796Z,99029.44
2022-09-07T02:33:47.360Z,99027.19
2022-09-07T02:36:13.913Z,99035.38
2022-09-07T02:38:40.317Z,99027.03
2022-09-07T02:41:06.839Z,99029.69
2022-09-07T02:43:34.174Z,99024.91
2022-09-07T02:46:00.724Z,99021.97
2022-09-07T02:48:27.355Z,99025.63
2022-09-07T02:50:53.815Z,99021.41
2022-09-07T02:53:20.311Z,99027.31
2022-09-07T02:55:47.078Z,99028.84
2022-09-07T02:58:13.473Z,99023.91
2022-09-07T03:00:40.190Z,99018.75
2022-09-07T03:03:07.140Z,99017.31
2022-09-07T03:05:33.772Z,99012.41
2022-09-07T03:08:00.165Z,99021.53
2022-09-07T03:10:26.817Z,99014.28
2022-09-07T03:12:53.506Z,99017.06
2022-09-07T03:15:20.072Z,99017.31
2022-09-07T03:17:47.420Z,99014.50
2022-09-07T03:20:14.094Z,99011.38
2022-09-07T03:22:40.616Z,99016.47
2022-09-07T03:25:07.186Z,99016.72
2022-09-07T03:27:33.789Z,99019.88
2022-09-07T03:30:00.303Z,99021.44
2022-09-07T03:32:29.112Z,99019.47
2022-09-07T03:34:55.554Z,99024.13
2022-09-07T03:37:22.014Z,99021.28
2022-09-07T03:39:48.529Z,99017.78
2022-09-07T03:42:15.304Z,99025.91
2022-09-07T03:44:41.817Z,99014.53
2022-09-07T03:47:09.118Z,99017.09
2022-09-07T03:49:35.654Z,99019.06
2022-09-07T03:52:03.113Z,99021.19
2022-09-07T03:54:29.891Z,99020.88
2022-09-07T03:56:56.716Z,99019.06
2022-09-07T03:59:23.372Z,99019.34
2022-09-07T04:01:50.149Z,99019.91
2022-09-07T04:04:16.704Z,99028.84
2022-09-07T04:06:43.156Z,99017.91
2022-09-07T04:09:09.974Z,99014.53
2022-09-07T04:11:36.358Z,99022.44
2022-09-07T04:14:02.800Z,99027.34
2022-09-07T04:16:29.466Z,99022.44
2022-09-07T04:18:55.976Z,99022.75
2022-09-07T04:21:22.460Z,99019.66
2022-09-07T04:23:49.332Z,99029.50
2022-09-07T04:26:16.261Z,99028.38
2022-09-07T04:28:42.992Z,99027.38
2022-09-07T04:31:09.898Z,99030.34
2022-09-07T04:33:36.532Z,99027.47
2022-09-07T04:36:02.982Z,99026.06
2022-09-07T04:38:29.652Z,99035.34
2022-09-07T04:40:58.325Z,99035.06
2022-09-07T04:43:24.835Z,99032.25
2022-09-07T04:45:54.360Z,99032.53
2022-09-07T04:48:20.999Z,99035.06
2022-09-07T04:50:47.848Z,99032.53
2022-09-07T04:53:14.900Z,99035.41
2022-09-07T04:55:41.459Z,99029.78
2022-09-07T04:58:07.935Z,99040.19
2022-09-07T05:00:35.260Z,99037.66
2022-09-07T05:03:01.774Z,99036.22
2022-09-07T05:05:28.390Z,99041.56
2022-09-07T05:07:55.023Z,99040.75
2022-09-07T05:10:22.015Z,99050.72
2022-09-07T05:12:48.776Z,99051.94
2022-09-07T05:15:15.587Z,99057.31
2022-09-07T05:17:42.041Z,99058.44
2022-09-07T05:20:08.990Z,99063.22
2022-09-07T05:22:35.572Z,99073.31
2022-09-07T05:25:02.056Z,99064.91
2022-09-07T05:27:28.834Z,99061.38
2022-09-07T05:32:24.742Z,99072.34
2022-09-07T05:34:53.026Z,99076.13
2022-09-07T05:37:19.669Z,99068.81
2022-09-07T05:39:46.316Z,99065.44
2022-09-07T05:42:12.802Z,99066.25
2022-09-07T05:47:09.751Z,99066.78
2022-09-07T05:49:36.292Z,99065.09
2022-09-07T05:52:02.825Z,99075.19
2022-09-07T05:54:30.535Z,99073.78
2022-09-07T05:56:56.950Z,99076.84
2022-09-07T05:59:25.960Z,99085.13
2022-09-07T06:01:52.674Z,99079.63
2022-09-07T06:04:19.668Z,99078.91
2022-09-07T06:07:04.558Z,99074.84
2022-09-07T06:09:32.720Z,99071.94
2022-09-07T06:11:59.662Z,99073.31
2022-09-07T06:14:28.856Z,99078.13
2022-09-07T06:16:55.329Z,99085.28
2022-09-07T06:19:22.503Z,99080.06
2022-09-07T06:21:49.895Z,99072.19
2022-09-07T06:24:16.891Z,99075.84
2022-09-07T06:26:44.359Z,99066.88
2022-09-07T06:29:10.778Z,99070.94
2022-09-07T06:34:25.682Z,99074.97
2022-09-07T06:36:52.150Z,99078.66
2022-09-07T06:39:18.689Z,99079.50
2022-09-07T06:42:00.918Z,99086.69
2022-09-07T06:44:27.993Z,99081.50
2022-09-07T06:49:28.601Z,99070.69
2022-09-07T06:51:55.395Z,99066.41
2022-09-07T06:57:09.986Z,99069.09
2022-09-07T06:59:36.800Z,99064.13
2022-09-07T07:02:03.279Z,99069.28
2022-09-07T07:04:29.731Z,99074.28
2022-09-07T07:06:56.731Z,99079.03
2022-09-07T07:09:23.260Z,99080.13
2022-09-07T07:11:49.821Z,99080.75
2022-09-07T07:14:16.340Z,99078.53
2022-09-07T07:16:44.028Z,99088.72
2022-09-07T07:19:10.542Z,99079.66
2022-09-07T07:22:03.152Z,99082.69
2022-09-07T07:24:23.740Z,99081.22
2022-09-07T07:26:50.831Z,99076.72
2022-09-07T07:29:18.877Z,99083.75
2022-09-07T07:31:45.453Z,99082.06
2022-09-07T07:34:11.983Z,99083.81
2022-09-07T07:36:38.460Z,99081.81
2022-09-07T07:39:05.094Z,99091.19
2022-09-07T07:44:19.088Z,99089.59
2022-09-07T07:46:45.616Z,99090.19
2022-09-07T07:49:13.193Z,99091.28
2022-09-07T07:54:26.372Z,99094.47
2022-09-07T07:56:52.748Z,99087.59
2022-09-07T07:59:19.529Z,99085.75
2022-09-07T08:01:46.592Z,99088.91
2022-09-07T08:04:13.095Z,99090.66
2022-09-07T08:06:39.659Z,99089.88
2022-09-07T08:09:06.494Z,99090.28
2022-09-07T08:11:32.984Z,99095.47
2022-09-07T08:13:59.447Z,99090.00
2022-09-07T08:16:26.150Z,99099.09
2022-09-07T08:18:52.639Z,99098.31
2022-09-07T08:21:19.173Z,99093.22
2022-09-07T08:23:46.202Z,99097.91
2022-09-07T08:26:12.825Z,99096.09
2022-09-07T08:28:39.370Z,99089.38
2022-09-07T08:31:05.917Z,99092.75
2022-09-07T08:33:33.588Z,99087.53
2022-09-07T08:36:00.083Z,99085.63
2022-09-07T08:38:34.225Z,99089.84
2022-09-07T08:41:00.694Z,99090.59
2022-09-07T08:43:27.763Z,99087.84
2022-09-07T08:45:54.317Z,99088.91
2022-09-07T08:48:20.814Z,99081.22
2022-09-07T08:50:47.748Z,99090.81
2022-09-07T08:53:15.011Z,99086.72
2022-09-07T08:55:41.426Z,99084.91
2022-09-07T08:58:18.150Z,99078.91
2022-09-07T09:01:30.601Z,99080.31
2022-09-07T09:06:28.031Z,99086.16
2022-09-07T09:08:55.337Z,99080.16
2022-09-07T09:11:21.897Z,99078.31
2022-09-07T09:13:48.336Z,99083.41
2022-09-07T09:16:15.020Z,99089.47
2022-09-07T09:18:41.725Z,99074.31
2022-09-07T09:21:08.319Z,99072.75
2022-09-07T09:23:35.530Z,99069.91
2022-09-07T09:26:04.583Z,99077.50
2022-09-07T09:28:32.441Z,99088.25
2022-09-07T09:30:59.262Z,99078.38
2022-09-07T09:33:28.378Z,99077.88
2022-09-07T09:35:56.345Z,99081.56
2022-09-07T09:38:22.992Z,99074.22
2022-09-07T09:40:49.660Z,99073.38
2022-09-07T09:43:16.033Z,99074.06
2022-09-07T09:48:29.211Z,99061.75
2022-09-07T09:53:42.286Z,99059.81
2022-09-07T09:56:09.088Z,99047.38
2022-09-07T10:01:25.266Z,99039.94
2022-09-07T10:06:20.469Z,99035.97
2022-09-07T10:08:47.751Z,99035.63
2022-09-07T10:11:15.916Z,99036.31
2022-09-07T10:13:42.842Z,99031.25
2022-09-07T10:16:09.630Z,99029.25
2022-09-07T10:18:36.230Z,99022.34
2022-09-07T10:21:02.626Z,99027.22
2022-09-07T10:23:29.035Z,99025.22
2022-09-07T10:25:55.455Z,99017.00
2022-09-07T10:28:21.812Z,99029.66
2022-09-07T10:30:48.259Z,99031.31
2022-09-07T10:33:14.689Z,99023.94
2022-09-07T10:35:41.038Z,99024.63
2022-09-07T10:38:07.514Z,99016.66
2022-09-07T10:40:33.918Z,99014.31
2022-09-07T10:45:47.427Z,99021.25
2022-09-07T10:48:13.826Z,99013.84
2022-09-07T10:50:40.221Z,99008.81
2022-09-07T10:53:23.859Z,99009.31
2022-09-07T10:55:53.162Z,99015.19
2022-09-07T10:58:20.747Z,99017.06
2022-09-07T11:00:47.174Z,99013.50
2022-09-07T11:03:28.810Z,99013.00
2022-09-07T11:05:55.496Z,99010.31
2022-09-07T11:08:21.903Z,98998.53
2022-09-07T11:10:48.436Z,99003.56
2022-09-07T11:13:15.933Z,99002.94
2022-09-07T11:15:42.406Z,99000.59
2022-09-07T11:18:08.818Z,99002.75
2022-09-07T11:20:35.689Z,98999.22
2022-09-07T11:23:03.533Z,98988.25
2022-09-07T11:25:32.863Z,98989.00
2022-09-07T11:27:59.569Z,98988.81
2022-09-07T11:30:26.788Z,98992.47
2022-09-07T11:32:53.375Z,98981.22
2022-09-07T11:35:19.794Z,98976.63
2022-09-07T11:37:46.184Z,98972.44
2022-09-07T11:40:12.641Z,98958.59
2022-09-07T11:42:46.268Z,98968.97
2022-09-07T11:45:12.686Z,98960.53
2022-09-07T11:47:39.399Z,98959.81
2022-09-07T11:50:05.814Z,98961.19
2022-09-07T11:52:32.210Z,98953.13
2022-09-07T11:54:58.776Z,98957.13
2022-09-07T11:57:25.220Z,98951.25
2022-09-07T11:59:51.622Z,98948.78
2022-09-07T12:02:18.324Z,98947.94
2022-09-07T12:04:44.867Z,98946.91
2022-09-07T12:07:13.374Z,98937.78
2022-09-07T12:09:39.941Z,98935.31
2022-09-07T12:12:06.360Z,98938.75
2022-09-07T12:14:32.795Z,98936.69
2022-09-07T12:16:59.394Z,98926.88
2022-09-07T12:19:28.505Z,98942.44
2022-09-07T12:21:55.616Z,98940.41
2022-09-07T12:24:22.099Z,98938.91
2022-09-07T12:26:48.583Z,98935.31
2022-09-07T12:29:15.482Z,98937.69
2022-09-07T12:31:57.387Z,98930.91
2022-09-07T12:34:27.037Z,98928.09
2022-09-07T12:36:53.636Z,98922.38
2022-09-07T12:39:20.061Z,98907.59
2022-09-07T12:41:47.888Z,98910.13
2022-09-07T12:44:15.667Z,98906.59
2022-09-07T12:46:42.357Z,98909.53
2022-09-07T12:49:08.801Z,98904.22
2022-09-07T12:54:24.380Z,98909.00
2022-09-07T12:57:28.984Z,98910.50
2022-09-07T12:59:42.060Z,98902.50
2022-09-07T13:02:09.075Z,98904.00
2022-09-07T13:04:38.100Z,98900.09
2022-09-07T13:07:04.572Z,98904.59
2022-09-07T13:09:31.303Z,98905.16
2022-09-07T13:11:57.832Z,98906.03
2022-09-07T13:14:26.364Z,98893.53
2022-09-07T13:19:40.336Z,98890.91
2022-09-07T13:22:06.815Z,98884.66
2022-09-07T13:24:48.768Z,98893.19
2022-09-07T13:27:17.548Z,98888.56
2022-09-07T13:29:43.981Z,98894.41
2022-09-07T13:32:10.449Z,98874.16
2022-09-07T13:34:36.894Z,98878.66
2022-09-07T13:37:03.263Z,98876.97
2022-09-07T13:39:29.709Z,98872.94
2022-09-07T13:41:56.851Z,98873.97
2022-09-07T13:44:26.179Z,98867.16
2022-09-07T13:46:53.632Z,98861.88
2022-09-07T13:49:20.095Z,98866.38
2022-09-07T13:51:46.665Z,98861.63
2022-09-07T13:54:15.500Z,98860.59
2022-09-07T13:56:42.389Z,98864.06
2022-09-07T13:59:08.942Z,98858.72
2022-09-07T14:01:36.455Z,98871.91
2022-09-07T14:04:03.115Z,98867.28
2022-09-07T14:06:29.762Z,98879.88
2022-09-07T14:08:56.329Z,98875.69
2022-09-07T14:11:24.858Z,98886.59
2022-09-07T14:13:52.433Z,98880.41
2022-09-07T14:16:19.144Z,98883.59
2022-09-07T14:18:45.783Z,98885.31
2022-09-07T14:21:12.320Z,98882.00
2022-09-07T14:23:38.812Z,98884.34
2022-09-07T14:26:21.029Z,98882.41
2022-09-07T14:28:48.664Z,98874.78
2022-09-07T14:31:15.262Z,98861.31
2022-09-07T14:33:46.092Z,98865.84
2022-09-07T14:36:36.344Z,98862.03
2022-09-07T14:39:06.977Z,98859.09
2022-09-07T14:41:33.992Z,98862.88
2022-09-07T14:44:00.673Z,98860.44
2022-09-07T14:46:27.151Z,98867.28
2022-09-07T14:48:55.326Z,98861.41
2022-09-07T14:51:34.744Z,98863.72
2022-09-07T14:54:01.787Z,98865.34
2022-09-07T14:56:28.644Z,98876.22
2022-09-07T14:58:55.025Z,98889.34
2022-09-07T15:01:37.574Z,98884.78
2022-09-07T15:04:04.459Z,98863.81
2022-09-07T15:09:17.397Z,98872.56
2022-09-07T15:11:43.732Z,98872.28
2022-09-07T15:14:10.099Z,98880.81
2022-09-07T15:16:36.770Z,98879.91
2022-09-07T15:19:03.156Z,98873.16
2022-09-07T15:21:29.495Z,98874.66
2022-09-07T15:23:55.916Z,98877.53
2022-09-07T15:29:12.077Z,98884.81
2022-09-07T15:31:41.967Z,98877.81
2022-09-07T15:34:09.227Z,98879.63
2022-09-07T15:36:35.579Z,98887.13
2022-09-07T15:39:03.308Z,98876.16
2022-09-07T15:41:30.218Z,98864.47
2022-09-07T15:43:56.822Z,98856.66
2022-09-07T15:46:24.825Z,98841.63
2022-09-07T15:48:51.378Z,98847.28
2022-09-07T15:54:11.452Z,98858.72
2022-09-07T15:56:39.426Z,98859.97
2022-09-07T15:59:05.945Z,98856.22
2022-09-07T16:04:20.569Z,98850.72
2022-09-07T16:06:48.228Z,98834.44
2022-09-07T16:09:15.095Z,98829.84
2022-09-07T16:11:41.724Z,98826.88
2022-09-07T16:14:08.059Z,98812.88
2022-09-07T16:19:21.773Z,98813.97
2022-09-07T16:21:48.213Z,98805.22
2022-09-07T16:24:14.543Z,98792.03
2022-09-07T16:26:40.949Z,98788.81
2022-09-07T16:29:07.933Z,98777.78
2022-09-07T16:31:34.718Z,98761.78
2022-09-07T16:34:01.726Z,98738.16
2022-09-07T16:36:28.126Z,98745.16
2022-09-07T16:38:54.658Z,98763.22
2022-09-07T16:41:21.363Z,98769.00
2022-09-07T16:43:47.747Z,98785.91
2022-09-07T16:46:14.122Z,98791.75
2022-09-07T16:48:40.768Z,98784.44
2022-09-07T16:51:07.122Z,98776.38
2022-09-07T16:53:33.526Z,98766.16
2022-09-07T16:56:00.200Z,98777.81
2022-09-07T16:58:42.012Z,98772.91
2022-09-07T17:01:08.808Z,98768.97
2022-09-07T17:03:35.288Z,98767.75
2022-09-07T17:06:01.883Z,98768.22
2022-09-07T17:08:28.709Z,98773.19
2022-09-07T17:10:55.602Z,98778.84
2022-09-07T17:13:22.079Z,98776.97
2022-09-07T17:15:49.045Z,98771.53
2022-09-07T17:18:15.619Z,98763.97
2022-09-07T17:20:42.688Z,98774.81
2022-09-07T17:23:09.373Z,98781.59
2022-09-07T17:25:35.712Z,98781.47
2022-09-07T17:28:02.184Z,98787.06
2022-09-07T17:30:28.642Z,98798.81
2022-09-07T17:32:55.031Z,98796.75
2022-09-07T17:35:21.589Z,98799.06
2022-09-07T17:37:48.608Z,98799.84
2022-09-07T17:40:15.036Z,98797.00
2022-09-07T17:45:28.199Z,98802.78
2022-09-07T17:47:54.725Z,98812.25
2022-09-07T17:50:21.193Z,98814.63
2022-09-07T17:52:53.022Z,98819.44
2022-09-07T17:55:19.713Z,98815.00
2022-09-07T17:57:46.301Z,98816.75
2022-09-07T18:00:13.027Z,98822.00
2022-09-07T18:02:39.547Z,98824.97
2022-09-07T18:05:07.096Z,98819.56
2022-09-07T18:07:36.616Z,98819.19
2022-09-07T18:10:03.402Z,98820.94
2022-09-07T18:12:29.836Z,98821.22
2022-09-07T18:14:56.962Z,98816.59
2022-09-07T18:17:23.506Z,98818.81
2022-09-07T18:19:50.286Z,98825.94
2022-09-07T18:22:17.194Z,98815.09
2022-09-07T18:24:43.780Z,98816.75
2022-09-07T18:27:10.491Z,98815.34
2022-09-07T18:29:37.650Z,98811.53
2022-09-07T18:32:04.643Z,98808.78
2022-09-07T18:34:32.448Z,98805.25
2022-09-07T18:36:59.497Z,98805.31
2022-09-07T18:39:26.672Z,98802.44
2022-09-07T18:41:53.603Z,98793.31
2022-09-07T18:47:07.246Z,98796.84
2022-09-07T18:49:34.385Z,98795.16
2022-09-07T18:54:47.879Z,98794.81
2022-09-07T18:57:15.479Z,98811.19
2022-09-07T18:59:42.359Z,98805.81
2022-09-07T19:02:09.219Z,98812.78
2022-09-07T19:07:26.205Z,98819.09
2022-09-07T19:09:55.741Z,98821.34
2022-09-07T19:12:23.430Z,98818.13
2022-09-07T19:14:50.324Z,98819.16
2022-09-07T19:17:16.806Z,98818.63
2022-09-07T19:19:45.341Z,98826.97
2022-09-07T19:22:12.161Z,98818.16
2022-09-07T19:24:39.219Z,98819.63
2022-09-07T19:27:09.191Z,98820.00
2022-09-07T19:29:36.381Z,98815.38
2022-09-07T19:32:04.602Z,98824.19
2022-09-07T19:34:34.455Z,98821.00
2022-09-07T19:37:01.723Z,98821.34
2022-09-07T19:39:29.373Z,98819.31
2022-09-07T19:41:59.266Z,98824.59
2022-09-07T19:44:26.152Z,98814.38
2022-09-07T19:46:56.361Z,98816.13
2022-09-07T19:49:24.686Z,98816.50
2022-09-07T19:51:52.127Z,98808.69
2022-09-07T19:54:19.816Z,98810.66
2022-09-07T19:56:47.383Z,98799.88
2022-09-07T19:59:16.653Z,98795.88
2022-09-07T20:01:49.255Z,98784.53
2022-09-07T20:04:20.097Z,98781.47
2022-09-07T20:06:48.232Z,98777.72
2022-09-07T20:09:15.372Z,98786.50
2022-09-07T20:11:46.248Z,98783.38
2022-09-07T20:14:14.000Z,98784.19
2022-09-07T20:16:41.277Z,98782.63
2022-09-07T20:19:10.445Z,98785.78
2022-09-07T20:21:37.518Z,98783.94
2022-09-07T20:24:05.863Z,98777.63
2022-09-07T20:26:32.763Z,98782.00
2022-09-07T20:31:47.364Z,98775.47
2022-09-07T20:34:14.346Z,98778.56
2022-09-07T20:36:41.330Z,98782.81
2022-09-07T20:39:08.116Z,98783.44
2022-09-07T20:41:34.678Z,98780.00
2022-09-07T20:44:01.323Z,98785.22
2022-09-07T20:46:27.791Z,98779.66
2022-09-07T20:48:54.558Z,98776.78
2022-09-07T20:51:23.476Z,98766.84
2022-09-07T20:53:50.754Z,98769.00
2022-09-07T20:56:17.327Z,98776.13
2022-09-07T20:58:43.747Z,98781.16
2022-09-07T21:01:10.597Z,98776.50
2022-09-07T21:03:37.240Z,98767.41
2022-09-07T21:06:03.652Z,98763.78
2022-09-07T21:08:30.584Z,98759.91
2022-09-07T21:10:57.173Z,98762.22
2022-09-07T21:13:23.630Z,98755.28
2022-09-07T21:15:50.633Z,98754.16
2022-09-07T21:18:17.407Z,98750.72
2022-09-07T21:20:56.940Z,98755.34
2022-09-07T21:23:31.467Z,98757.19
2022-09-07T21:25:57.866Z,98760.50
2022-09-07T21:28:24.414Z,98753.97
2022-09-07T21:30:51.249Z,98749.97
2022-09-07T21:33:17.639Z,98745.25
2022-09-07T21:35:44.200Z,98749.06
2022-09-07T21:38:10.691Z,98745.69
2022-09-07T21:40:37.402Z,98746.03
2022-09-07T21:43:04.151Z,98745.09
2022-09-07T21:45:30.828Z,98741.00
2022-09-07T21:47:57.578Z,98736.47
2022-09-07T21:50:24.104Z,98739.31
2022-09-07T21:52:50.645Z,98732.56
2022-09-07T21:55:17.202Z,98733.41
2022-09-07T21:57:43.641Z,98729.03
2022-09-07T22:00:10.490Z,98727.38
2022-09-07T22:02:37.115Z,98721.41
2022-09-07T22:05:03.492Z,98728.97
2022-09-07T22:07:30.231Z,98723.41
2022-09-07T22:09:59.206Z,98722.72
2022-09-07T22:12:25.657Z,98731.69
2022-09-07T22:14:52.192Z,98733.34
2022-09-07T22:17:18.588Z,98732.53
2022-09-07T22:19:45.187Z,98721.38
2022-09-07T22:22:12.318Z,98732.78
2022-09-07T22:24:38.774Z,98724.00
2022-09-07T22:27:05.311Z,98729.50
2022-09-07T22:29:31.787Z,98725.28
2022-09-07T22:31:58.454Z,98716.25
2022-09-07T22:34:25.883Z,98713.25
2022-09-07T22:36:53.018Z,98708.84
2022-09-07T22:39:19.462Z,98712.88
2022-09-07T22:41:45.883Z,98712.56
2022-09-07T22:44:12.338Z,98709.66
2022-09-07T22:46:38.852Z,98708.28
2022-09-07T22:49:05.423Z,98703.91
2022-09-07T22:51:32.037Z,98699.72
2022-09-07T22:54:00.671Z,98695.84
2022-09-07T22:56:27.096Z,98693.50
2022-09-07T22:58:53.707Z,98685.78
2022-09-07T23:01:20.230Z,98682.72
2022-09-07T23:03:46.732Z,98682.56
2022-09-07T23:06:13.772Z,98685.41
2022-09-07T23:08:40.660Z,98667.63
2022-09-07T23:11:07.051Z,98673.84
2022-09-07T23:13:34.003Z,98660.59
2022-09-07T23:16:00.564Z,98664.63
2022-09-07T23:18:27.607Z,98658.59
2022-09-07T23:21:00.275Z,98646.88
2022-09-07T23:23:27.150Z,98648.06
2022-09-07T23:25:53.567Z,98636.03
2022-09-07T23:28:20.063Z,98639.88
2022-09-07T23:30:46.874Z,98635.50
2022-09-07T23:33:13.585Z,98629.97
2022-09-07T23:35:40.598Z,98634.53
2022-09-07T23:38:07.052Z,98628.34
2022-09-07T23:40:33.491Z,98623.34
2022-09-07T23:43:01.690Z,98624.34
2022-09-07T23:45:29.129Z,98620.47
2022-09-07T23:47:55.681Z,98615.78
2022-09-07T23:50:22.370Z,98613.09
2022-09-07T23:52:48.815Z,98616.47
2022-09-07T23:55:15.397Z,98609.09
2022-09-07T23:57:42.112Z,98612.09
